sensor_id;sensor_type;location;lat;lon;timestamp;P1;durP1;ratioP1;P2;durP2;ratioP2
76995;SDS011;65929;49.062;10.338;2023-02-08T00:00:39;16.35;;;6.50;;
76995;SDS011;65929;49.062;10.338;2023-02-08T00:01:40;15.45;;;6.95;;
76995;SDS011;65929;49.062;10.338;2023-02-08T00:02:41;11.68;;;6.65;;
76995;SDS011;65929;49.062;10.338;2023-02-08T00:03:42;10.82;;;6.05;;
76995;SDS011;65929;49.062;10.338;2023-02-08T00:04:43;13.48;;;6.22;;
76995;SDS011;65929;49.062;10.338;2023-02-08T00:05:44;13.50;;;5.82;;
76995;SDS011;65929;49.062;10.338;2023-02-08T00:06:45;15.63;;;7.03;;
76995;SDS011;65929;49.062;10.338;2023-02-08T00:07:46;15.68;;;7.32;;
76995;SDS011;65929;49.062;10.338;2023-02-08T00:08:47;22.15;;;7.93;;
76995;SDS011;65929;49.062;10.338;2023-02-08T00:09:49;18.27;;;7.85;;
76995;SDS011;65929;49.062;10.338;2023-02-08T00:10:50;26.35;;;9.30;;
76995;SDS011;65929;49.062;10.338;2023-02-08T00:11:51;27.15;;;8.95;;
76995;SDS011;65929;49.062;10.338;2023-02-08T00:12:52;15.48;;;6.65;;
76995;SDS011;65929;49.062;10.338;2023-02-08T00:13:53;17.20;;;6.53;;
76995;SDS011;65929;49.062;10.338;2023-02-08T00:14:54;10.43;;;6.15;;
76995;SDS011;65929;49.062;10.338;2023-02-08T00:15:55;16.25;;;6.25;;
76995;SDS011;65929;49.062;10.338;2023-02-08T00:16:56;15.93;;;6.47;;
76995;SDS011;65929;49.062;10.338;2023-02-08T00:17:56;18.60;;;7.13;;
76995;SDS011;65929;49.062;10.338;2023-02-08T00:18:57;15.60;;;6.25;;
76995;SDS011;65929;49.062;10.338;2023-02-08T00:19:58;12.95;;;6.47;;
76995;SDS011;65929;49.062;10.338;2023-02-08T00:20:59;15.63;;;6.10;;
76995;SDS011;65929;49.062;10.338;2023-02-08T00:22:00;9.18;;;5.55;;
76995;SDS011;65929;49.062;10.338;2023-02-08T00:23:01;14.15;;;6.32;;
76995;SDS011;65929;49.062;10.338;2023-02-08T00:24:02;12.77;;;5.75;;
76995;SDS011;65929;49.062;10.338;2023-02-08T00:25:05;15.15;;;5.82;;
76995;SDS011;65929;49.062;10.338;2023-02-08T00:26:07;10.38;;;5.63;;
76995;SDS011;65929;49.062;10.338;2023-02-08T00:27:08;11.60;;;4.15;;
76995;SDS011;65929;49.062;10.338;2023-02-08T00:28:11;12.07;;;6.22;;
76995;SDS011;65929;49.062;10.338;2023-02-08T00:29:14;10.13;;;4.65;;
76995;SDS011;65929;49.062;10.338;2023-02-08T00:30:15;12.68;;;6.47;;
76995;SDS011;65929;49.062;10.338;2023-02-08T00:31:16;12.27;;;6.43;;
76995;SDS011;65929;49.062;10.338;2023-02-08T00:32:17;11.70;;;5.50;;
76995;SDS011;65929;49.062;10.338;2023-02-08T00:33:17;11.75;;;5.57;;
76995;SDS011;65929;49.062;10.338;2023-02-08T00:34:18;10.35;;;4.97;;
76995;SDS011;65929;49.062;10.338;2023-02-08T00:35:19;15.98;;;5.55;;
76995;SDS011;65929;49.062;10.338;2023-02-08T00:36:20;11.48;;;6.05;;
76995;SDS011;65929;49.062;10.338;2023-02-08T00:37:21;15.57;;;6.38;;
76995;SDS011;65929;49.062;10.338;2023-02-08T00:38:22;15.82;;;6.07;;
76995;SDS011;65929;49.062;10.338;2023-02-08T00:39:24;10.60;;;4.60;;
76995;SDS011;65929;49.062;10.338;2023-02-08T00:40:27;8.75;;;5.05;;
76995;SDS011;65929;49.062;10.338;2023-02-08T00:41:28;12.57;;;6.30;;
76995;SDS011;65929;49.062;10.338;2023-02-08T00:42:28;12.15;;;5.72;;
76995;SDS011;65929;49.062;10.338;2023-02-08T00:43:29;11.50;;;5.25;;
76995;SDS011;65929;49.062;10.338;2023-02-08T00:44:30;13.30;;;5.57;;
76995;SDS011;65929;49.062;10.338;2023-02-08T00:45:32;9.55;;;4.90;;
76995;SDS011;65929;49.062;10.338;2023-02-08T00:46:33;13.50;;;6.00;;
76995;SDS011;65929;49.062;10.338;2023-02-08T00:47:34;13.23;;;6.20;;
76995;SDS011;65929;49.062;10.338;2023-02-08T00:48:35;13.60;;;5.80;;
76995;SDS011;65929;49.062;10.338;2023-02-08T00:49:36;14.20;;;6.35;;
76995;SDS011;65929;49.062;10.338;2023-02-08T00:50:37;13.57;;;6.13;;
76995;SDS011;65929;49.062;10.338;2023-02-08T00:51:38;11.30;;;5.75;;
76995;SDS011;65929;49.062;10.338;2023-02-08T00:52:39;14.63;;;6.80;;
76995;SDS011;65929;49.062;10.338;2023-02-08T00:53:41;11.75;;;5.45;;
76995;SDS011;65929;49.062;10.338;2023-02-08T00:54:43;9.40;;;4.75;;
76995;SDS011;65929;49.062;10.338;2023-02-08T00:55:50;10.82;;;4.95;;
76995;SDS011;65929;49.062;10.338;2023-02-08T00:56:51;16.15;;;5.90;;
76995;SDS011;65929;49.062;10.338;2023-02-08T00:57:52;10.40;;;5.07;;
76995;SDS011;65929;49.062;10.338;2023-02-08T00:58:53;8.48;;;4.43;;
76995;SDS011;65929;49.062;10.338;2023-02-08T00:59:54;14.95;;;5.82;;
76995;SDS011;65929;49.062;10.338;2023-02-08T01:00:55;12.40;;;5.13;;
76995;SDS011;65929;49.062;10.338;2023-02-08T01:01:56;12.32;;;5.70;;
76995;SDS011;65929;49.062;10.338;2023-02-08T01:02:57;14.05;;;6.30;;
76995;SDS011;65929;49.062;10.338;2023-02-08T01:03:58;11.57;;;5.90;;
76995;SDS011;65929;49.062;10.338;2023-02-08T01:04:59;11.95;;;5.80;;
76995;SDS011;65929;49.062;10.338;2023-02-08T01:06:00;13.68;;;5.53;;
76995;SDS011;65929;49.062;10.338;2023-02-08T01:07:02;14.48;;;6.28;;
76995;SDS011;65929;49.062;10.338;2023-02-08T01:08:04;13.60;;;5.65;;
76995;SDS011;65929;49.062;10.338;2023-02-08T01:09:05;13.82;;;5.05;;
76995;SDS011;65929;49.062;10.338;2023-02-08T01:10:07;18.90;;;6.38;;
76995;SDS011;65929;49.062;10.338;2023-02-08T01:11:13;10.85;;;4.32;;
76995;SDS011;65929;49.062;10.338;2023-02-08T01:12:17;11.27;;;5.00;;
76995;SDS011;65929;49.062;10.338;2023-02-08T01:13:18;12.25;;;4.95;;
76995;SDS011;65929;49.062;10.338;2023-02-08T01:14:19;14.15;;;4.53;;
76995;SDS011;65929;49.062;10.338;2023-02-08T01:15:20;11.63;;;5.35;;
76995;SDS011;65929;49.062;10.338;2023-02-08T01:16:22;10.65;;;5.13;;
76995;SDS011;65929;49.062;10.338;2023-02-08T01:17:24;11.80;;;5.03;;
76995;SDS011;65929;49.062;10.338;2023-02-08T01:18:25;11.43;;;5.38;;
76995;SDS011;65929;49.062;10.338;2023-02-08T01:19:26;6.13;;;4.13;;
76995;SDS011;65929;49.062;10.338;2023-02-08T01:20:28;12.52;;;5.95;;
76995;SDS011;65929;49.062;10.338;2023-02-08T01:21:30;12.38;;;5.28;;
76995;SDS011;65929;49.062;10.338;2023-02-08T01:22:32;9.80;;;5.38;;
76995;SDS011;65929;49.062;10.338;2023-02-08T01:23:33;12.55;;;5.65;;
76995;SDS011;65929;49.062;10.338;2023-02-08T01:24:34;10.63;;;5.13;;
76995;SDS011;65929;49.062;10.338;2023-02-08T01:25:35;10.80;;;5.28;;
76995;SDS011;65929;49.062;10.338;2023-02-08T01:26:38;10.75;;;5.55;;
76995;SDS011;65929;49.062;10.338;2023-02-08T01:27:38;9.65;;;6.47;;
76995;SDS011;65929;49.062;10.338;2023-02-08T01:28:40;12.63;;;6.13;;
76995;SDS011;65929;49.062;10.338;2023-02-08T01:29:41;16.65;;;6.07;;
76995;SDS011;65929;49.062;10.338;2023-02-08T01:30:42;12.40;;;5.63;;
76995;SDS011;65929;49.062;10.338;2023-02-08T01:31:43;13.02;;;5.95;;
76995;SDS011;65929;49.062;10.338;2023-02-08T01:32:45;11.05;;;6.05;;
76995;SDS011;65929;49.062;10.338;2023-02-08T01:33:46;11.30;;;5.75;;
76995;SDS011;65929;49.062;10.338;2023-02-08T01:34:47;14.48;;;6.10;;
76995;SDS011;65929;49.062;10.338;2023-02-08T01:35:49;9.10;;;4.93;;
76995;SDS011;65929;49.062;10.338;2023-02-08T01:36:51;10.93;;;5.70;;
76995;SDS011;65929;49.062;10.338;2023-02-08T01:37:52;14.45;;;5.80;;
76995;SDS011;65929;49.062;10.338;2023-02-08T01:38:56;12.77;;;4.63;;
76995;SDS011;65929;49.062;10.338;2023-02-08T01:39:57;13.02;;;5.43;;
76995;SDS011;65929;49.062;10.338;2023-02-08T01:40:58;11.63;;;5.47;;
76995;SDS011;65929;49.062;10.338;2023-02-08T01:42:01;11.05;;;5.63;;
76995;SDS011;65929;49.062;10.338;2023-02-08T01:43:02;10.07;;;5.18;;
76995;SDS011;65929;49.062;10.338;2023-02-08T01:45:39;10.18;;;4.15;;
76995;SDS011;65929;49.062;10.338;2023-02-08T01:46:41;13.57;;;4.85;;
76995;SDS011;65929;49.062;10.338;2023-02-08T01:47:43;14.10;;;5.47;;
76995;SDS011;65929;49.062;10.338;2023-02-08T01:48:46;12.00;;;5.70;;
76995;SDS011;65929;49.062;10.338;2023-02-08T01:49:47;12.85;;;5.25;;
76995;SDS011;65929;49.062;10.338;2023-02-08T01:50:49;9.82;;;5.70;;
76995;SDS011;65929;49.062;10.338;2023-02-08T01:51:54;10.98;;;5.10;;
76995;SDS011;65929;49.062;10.338;2023-02-08T01:52:59;12.40;;;6.35;;
76995;SDS011;65929;49.062;10.338;2023-02-08T01:54:01;12.20;;;5.68;;
76995;SDS011;65929;49.062;10.338;2023-02-08T01:55:05;10.48;;;5.75;;
76995;SDS011;65929;49.062;10.338;2023-02-08T01:56:16;15.75;;;6.50;;
76995;SDS011;65929;49.062;10.338;2023-02-08T01:57:23;8.65;;;4.68;;
76995;SDS011;65929;49.062;10.338;2023-02-08T01:58:25;11.00;;;5.95;;
76995;SDS011;65929;49.062;10.338;2023-02-08T01:59:31;10.95;;;4.55;;
76995;SDS011;65929;49.062;10.338;2023-02-08T02:00:36;10.38;;;4.45;;
76995;SDS011;65929;49.062;10.338;2023-02-08T02:01:37;12.10;;;5.85;;
76995;SDS011;65929;49.062;10.338;2023-02-08T02:02:39;11.55;;;4.90;;
76995;SDS011;65929;49.062;10.338;2023-02-08T02:03:41;10.65;;;4.70;;
76995;SDS011;65929;49.062;10.338;2023-02-08T02:04:42;13.75;;;5.72;;
76995;SDS011;65929;49.062;10.338;2023-02-08T02:05:45;10.88;;;4.80;;
76995;SDS011;65929;49.062;10.338;2023-02-08T02:06:50;12.63;;;5.82;;
76995;SDS011;65929;49.062;10.338;2023-02-08T02:07:55;12.13;;;5.07;;
76995;SDS011;65929;49.062;10.338;2023-02-08T02:09:00;9.65;;;6.18;;
76995;SDS011;65929;49.062;10.338;2023-02-08T02:10:08;10.50;;;4.78;;
76995;SDS011;65929;49.062;10.338;2023-02-08T02:11:13;7.72;;;4.72;;
76995;SDS011;65929;49.062;10.338;2023-02-08T02:12:19;8.95;;;4.53;;
76995;SDS011;65929;49.062;10.338;2023-02-08T02:13:22;8.95;;;4.50;;
76995;SDS011;65929;49.062;10.338;2023-02-08T02:14:25;10.43;;;5.28;;
76995;SDS011;65929;49.062;10.338;2023-02-08T02:15:27;16.42;;;5.63;;
76995;SDS011;65929;49.062;10.338;2023-02-08T02:16:28;13.80;;;6.30;;
76995;SDS011;65929;49.062;10.338;2023-02-08T02:17:29;9.82;;;5.18;;
76995;SDS011;65929;49.062;10.338;2023-02-08T02:18:31;12.18;;;5.18;;
76995;SDS011;65929;49.062;10.338;2023-02-08T02:19:36;9.57;;;3.92;;
76995;SDS011;65929;49.062;10.338;2023-02-08T02:20:49;11.95;;;6.25;;
76995;SDS011;65929;49.062;10.338;2023-02-08T02:22:21;7.03;;;4.65;;
76995;SDS011;65929;49.062;10.338;2023-02-08T02:25:22;7.10;;;3.15;;
76995;SDS011;65929;49.062;10.338;2023-02-08T02:26:46;10.75;;;4.97;;
76995;SDS011;65929;49.062;10.338;2023-02-08T02:33:01;8.75;;;3.17;;
76995;SDS011;65929;49.062;10.338;2023-02-08T02:34:22;9.45;;;3.05;;
76995;SDS011;65929;49.062;10.338;2023-02-08T02:35:33;11.02;;;4.20;;
76995;SDS011;65929;49.062;10.338;2023-02-08T02:36:39;8.10;;;4.05;;
76995;SDS011;65929;49.062;10.338;2023-02-08T02:37:50;3.95;;;3.13;;
76995;SDS011;65929;49.062;10.338;2023-02-08T02:39:07;8.60;;;4.32;;
76995;SDS011;65929;49.062;10.338;2023-02-08T02:40:15;7.80;;;4.05;;
76995;SDS011;65929;49.062;10.338;2023-02-08T02:41:23;10.73;;;3.65;;
76995;SDS011;65929;49.062;10.338;2023-02-08T02:42:58;9.88;;;4.45;;
76995;SDS011;65929;49.062;10.338;2023-02-08T02:44:24;4.57;;;3.33;;
76995;SDS011;65929;49.062;10.338;2023-02-08T02:45:35;5.95;;;4.15;;
76995;SDS011;65929;49.062;10.338;2023-02-08T02:46:45;10.25;;;4.22;;
76995;SDS011;65929;49.062;10.338;2023-02-08T02:47:52;10.15;;;4.25;;
76995;SDS011;65929;49.062;10.338;2023-02-08T02:49:10;8.35;;;4.10;;
76995;SDS011;65929;49.062;10.338;2023-02-08T02:50:28;10.07;;;3.65;;
76995;SDS011;65929;49.062;10.338;2023-02-08T02:51:33;11.40;;;4.25;;
76995;SDS011;65929;49.062;10.338;2023-02-08T02:52:40;7.80;;;4.25;;
76995;SDS011;65929;49.062;10.338;2023-02-08T02:53:46;11.80;;;4.45;;
76995;SDS011;65929;49.062;10.338;2023-02-08T02:54:53;9.05;;;4.28;;
76995;SDS011;65929;49.062;10.338;2023-02-08T02:55:59;7.35;;;3.72;;
76995;SDS011;65929;49.062;10.338;2023-02-08T02:57:06;9.85;;;4.50;;
76995;SDS011;65929;49.062;10.338;2023-02-08T02:58:10;9.63;;;5.50;;
76995;SDS011;65929;49.062;10.338;2023-02-08T02:59:15;10.57;;;4.63;;
76995;SDS011;65929;49.062;10.338;2023-02-08T03:00:18;10.50;;;4.55;;
76995;SDS011;65929;49.062;10.338;2023-02-08T03:01:22;8.75;;;5.22;;
76995;SDS011;65929;49.062;10.338;2023-02-08T03:02:32;9.60;;;5.00;;
76995;SDS011;65929;49.062;10.338;2023-02-08T03:03:39;12.10;;;4.80;;
76995;SDS011;65929;49.062;10.338;2023-02-08T03:04:48;10.40;;;3.88;;
76995;SDS011;65929;49.062;10.338;2023-02-08T03:05:51;8.90;;;4.55;;
76995;SDS011;65929;49.062;10.338;2023-02-08T03:07:04;12.60;;;4.53;;
76995;SDS011;65929;49.062;10.338;2023-02-08T03:08:15;7.22;;;3.92;;
76995;SDS011;65929;49.062;10.338;2023-02-08T03:09:37;9.05;;;3.50;;
76995;SDS011;65929;49.062;10.338;2023-02-08T03:10:57;7.75;;;4.68;;
76995;SDS011;65929;49.062;10.338;2023-02-08T03:12:16;7.13;;;4.32;;
76995;SDS011;65929;49.062;10.338;2023-02-08T03:13:31;8.15;;;3.58;;
76995;SDS011;65929;49.062;10.338;2023-02-08T03:14:42;11.15;;;4.93;;
76995;SDS011;65929;49.062;10.338;2023-02-08T03:15:52;7.88;;;3.78;;
76995;SDS011;65929;49.062;10.338;2023-02-08T03:17:14;9.27;;;4.18;;
76995;SDS011;65929;49.062;10.338;2023-02-08T03:18:33;7.25;;;3.38;;
76995;SDS011;65929;49.062;10.338;2023-02-08T03:19:45;6.25;;;3.58;;
76995;SDS011;65929;49.062;10.338;2023-02-08T03:21:06;8.02;;;3.30;;
76995;SDS011;65929;49.062;10.338;2023-02-08T03:22:12;11.07;;;4.78;;
76995;SDS011;65929;49.062;10.338;2023-02-08T03:23:17;8.35;;;4.72;;
76995;SDS011;65929;49.062;10.338;2023-02-08T03:24:24;8.68;;;4.63;;
76995;SDS011;65929;49.062;10.338;2023-02-08T03:25:36;9.13;;;3.85;;
76995;SDS011;65929;49.062;10.338;2023-02-08T03:26:44;10.45;;;4.32;;
76995;SDS011;65929;49.062;10.338;2023-02-08T03:27:54;12.90;;;4.50;;
76995;SDS011;65929;49.062;10.338;2023-02-08T03:29:05;9.68;;;3.88;;
76995;SDS011;65929;49.062;10.338;2023-02-08T03:30:16;10.02;;;4.35;;
76995;SDS011;65929;49.062;10.338;2023-02-08T03:31:23;10.15;;;4.63;;
76995;SDS011;65929;49.062;10.338;2023-02-08T03:32:31;7.68;;;4.25;;
76995;SDS011;65929;49.062;10.338;2023-02-08T03:33:38;8.07;;;3.55;;
76995;SDS011;65929;49.062;10.338;2023-02-08T03:34:45;11.30;;;5.28;;
76995;SDS011;65929;49.062;10.338;2023-02-08T03:35:54;9.38;;;4.97;;
76995;SDS011;65929;49.062;10.338;2023-02-08T03:37:02;10.35;;;4.60;;
76995;SDS011;65929;49.062;10.338;2023-02-08T03:38:07;7.35;;;4.38;;
76995;SDS011;65929;49.062;10.338;2023-02-08T03:39:12;9.13;;;4.15;;
76995;SDS011;65929;49.062;10.338;2023-02-08T03:40:18;11.57;;;5.03;;
76995;SDS011;65929;49.062;10.338;2023-02-08T03:41:23;7.45;;;3.92;;
76995;SDS011;65929;49.062;10.338;2023-02-08T03:43:30;3.85;;;3.13;;
76995;SDS011;65929;49.062;10.338;2023-02-08T03:44:36;8.60;;;2.80;;
76995;SDS011;65929;49.062;10.338;2023-02-08T03:45:41;9.50;;;4.47;;
76995;SDS011;65929;49.062;10.338;2023-02-08T03:46:47;10.98;;;4.22;;
76995;SDS011;65929;49.062;10.338;2023-02-08T03:47:52;3.90;;;2.95;;
76995;SDS011;65929;49.062;10.338;2023-02-08T03:48:58;9.05;;;3.63;;
76995;SDS011;65929;49.062;10.338;2023-02-08T03:50:04;8.35;;;3.38;;
76995;SDS011;65929;49.062;10.338;2023-02-08T03:51:09;7.82;;;4.68;;
76995;SDS011;65929;49.062;10.338;2023-02-08T03:52:11;8.30;;;4.88;;
76995;SDS011;65929;49.062;10.338;2023-02-08T03:53:12;7.68;;;3.95;;
76995;SDS011;65929;49.062;10.338;2023-02-08T03:54:18;10.48;;;4.90;;
76995;SDS011;65929;49.062;10.338;2023-02-08T03:55:23;7.45;;;4.80;;
76995;SDS011;65929;49.062;10.338;2023-02-08T03:56:27;6.55;;;4.78;;
76995;SDS011;65929;49.062;10.338;2023-02-08T03:57:33;7.47;;;3.95;;
76995;SDS011;65929;49.062;10.338;2023-02-08T03:58:40;7.75;;;3.92;;
76995;SDS011;65929;49.062;10.338;2023-02-08T03:59:46;7.32;;;4.55;;
76995;SDS011;65929;49.062;10.338;2023-02-08T04:00:57;9.57;;;3.95;;
76995;SDS011;65929;49.062;10.338;2023-02-08T04:02:02;7.45;;;4.05;;
76995;SDS011;65929;49.062;10.338;2023-02-08T04:03:07;7.20;;;3.35;;
76995;SDS011;65929;49.062;10.338;2023-02-08T04:04:13;10.20;;;4.00;;
76995;SDS011;65929;49.062;10.338;2023-02-08T04:05:19;7.45;;;4.25;;
76995;SDS011;65929;49.062;10.338;2023-02-08T04:06:21;9.32;;;4.78;;
76995;SDS011;65929;49.062;10.338;2023-02-08T04:07:23;10.95;;;4.72;;
76995;SDS011;65929;49.062;10.338;2023-02-08T04:08:24;7.03;;;3.80;;
76995;SDS011;65929;49.062;10.338;2023-02-08T04:09:26;13.05;;;4.75;;
76995;SDS011;65929;49.062;10.338;2023-02-08T04:10:27;14.10;;;4.70;;
76995;SDS011;65929;49.062;10.338;2023-02-08T04:11:28;7.30;;;4.10;;
76995;SDS011;65929;49.062;10.338;2023-02-08T04:12:29;9.57;;;3.95;;
76995;SDS011;65929;49.062;10.338;2023-02-08T04:13:30;10.60;;;4.22;;
76995;SDS011;65929;49.062;10.338;2023-02-08T04:14:31;9.13;;;3.97;;
76995;SDS011;65929;49.062;10.338;2023-02-08T04:15:32;8.77;;;4.63;;
76995;SDS011;65929;49.062;10.338;2023-02-08T04:16:33;7.95;;;4.43;;
76995;SDS011;65929;49.062;10.338;2023-02-08T04:17:34;10.85;;;4.50;;
76995;SDS011;65929;49.062;10.338;2023-02-08T04:18:35;10.15;;;5.10;;
76995;SDS011;65929;49.062;10.338;2023-02-08T04:19:37;9.90;;;5.13;;
76995;SDS011;65929;49.062;10.338;2023-02-08T04:20:39;11.13;;;5.82;;
76995;SDS011;65929;49.062;10.338;2023-02-08T04:21:40;10.32;;;4.97;;
76995;SDS011;65929;49.062;10.338;2023-02-08T04:22:41;11.10;;;4.38;;
76995;SDS011;65929;49.062;10.338;2023-02-08T04:23:42;8.52;;;4.40;;
76995;SDS011;65929;49.062;10.338;2023-02-08T04:24:43;10.32;;;5.43;;
76995;SDS011;65929;49.062;10.338;2023-02-08T04:25:44;11.50;;;4.15;;
76995;SDS011;65929;49.062;10.338;2023-02-08T04:26:45;9.02;;;4.50;;
76995;SDS011;65929;49.062;10.338;2023-02-08T04:27:46;12.32;;;5.68;;
76995;SDS011;65929;49.062;10.338;2023-02-08T04:28:47;10.18;;;4.18;;
76995;SDS011;65929;49.062;10.338;2023-02-08T04:29:48;9.13;;;4.75;;
76995;SDS011;65929;49.062;10.338;2023-02-08T04:30:49;10.57;;;6.13;;
76995;SDS011;65929;49.062;10.338;2023-02-08T04:31:49;11.45;;;5.40;;
76995;SDS011;65929;49.062;10.338;2023-02-08T04:32:50;10.05;;;4.63;;
76995;SDS011;65929;49.062;10.338;2023-02-08T04:33:51;9.60;;;5.05;;
76995;SDS011;65929;49.062;10.338;2023-02-08T04:34:52;11.52;;;6.13;;
76995;SDS011;65929;49.062;10.338;2023-02-08T04:35:55;10.77;;;5.10;;
76995;SDS011;65929;49.062;10.338;2023-02-08T04:36:56;8.27;;;4.15;;
76995;SDS011;65929;49.062;10.338;2023-02-08T04:37:57;11.63;;;5.43;;
76995;SDS011;65929;49.062;10.338;2023-02-08T04:38:58;10.77;;;5.13;;
76995;SDS011;65929;49.062;10.338;2023-02-08T04:39:59;10.77;;;4.40;;
76995;SDS011;65929;49.062;10.338;2023-02-08T04:41:00;7.65;;;4.22;;
76995;SDS011;65929;49.062;10.338;2023-02-08T04:42:01;14.80;;;6.43;;
76995;SDS011;65929;49.062;10.338;2023-02-08T04:43:02;11.23;;;5.82;;
76995;SDS011;65929;49.062;10.338;2023-02-08T04:44:03;10.63;;;5.50;;
76995;SDS011;65929;49.062;10.338;2023-02-08T04:45:04;7.38;;;5.75;;
76995;SDS011;65929;49.062;10.338;2023-02-08T04:46:06;14.90;;;5.05;;
76995;SDS011;65929;49.062;10.338;2023-02-08T04:47:07;8.93;;;4.30;;
76995;SDS011;65929;49.062;10.338;2023-02-08T04:48:08;7.90;;;3.92;;
76995;SDS011;65929;49.062;10.338;2023-02-08T04:49:09;9.57;;;5.07;;
76995;SDS011;65929;49.062;10.338;2023-02-08T04:50:10;9.50;;;4.55;;
76995;SDS011;65929;49.062;10.338;2023-02-08T04:51:12;15.90;;;5.22;;
76995;SDS011;65929;49.062;10.338;2023-02-08T04:52:13;13.23;;;5.63;;
76995;SDS011;65929;49.062;10.338;2023-02-08T04:53:14;10.88;;;4.20;;
76995;SDS011;65929;49.062;10.338;2023-02-08T04:54:15;13.48;;;5.10;;
76995;SDS011;65929;49.062;10.338;2023-02-08T04:55:16;9.75;;;5.00;;
76995;SDS011;65929;49.062;10.338;2023-02-08T04:56:17;14.15;;;5.13;;
76995;SDS011;65929;49.062;10.338;2023-02-08T04:57:18;9.73;;;5.82;;
76995;SDS011;65929;49.062;10.338;2023-02-08T04:58:19;13.25;;;5.05;;
76995;SDS011;65929;49.062;10.338;2023-02-08T04:59:20;15.25;;;6.00;;
76995;SDS011;65929;49.062;10.338;2023-02-08T05:00:21;18.65;;;5.45;;
76995;SDS011;65929;49.062;10.338;2023-02-08T05:01:22;13.98;;;6.65;;
76995;SDS011;65929;49.062;10.338;2023-02-08T05:02:23;14.63;;;5.30;;
76995;SDS011;65929;49.062;10.338;2023-02-08T05:03:24;8.90;;;5.10;;
76995;SDS011;65929;49.062;10.338;2023-02-08T05:04:25;13.38;;;6.22;;
76995;SDS011;65929;49.062;10.338;2023-02-08T05:05:26;14.70;;;6.07;;
76995;SDS011;65929;49.062;10.338;2023-02-08T05:06:32;11.20;;;4.88;;
76995;SDS011;65929;49.062;10.338;2023-02-08T05:07:33;13.80;;;4.80;;
76995;SDS011;65929;49.062;10.338;2023-02-08T05:08:34;11.85;;;5.13;;
76995;SDS011;65929;49.062;10.338;2023-02-08T05:09:35;10.68;;;5.63;;
76995;SDS011;65929;49.062;10.338;2023-02-08T05:10:36;9.48;;;5.15;;
76995;SDS011;65929;49.062;10.338;2023-02-08T05:11:42;9.40;;;4.35;;
76995;SDS011;65929;49.062;10.338;2023-02-08T05:12:43;13.75;;;5.25;;
76995;SDS011;65929;49.062;10.338;2023-02-08T05:13:44;12.23;;;5.38;;
76995;SDS011;65929;49.062;10.338;2023-02-08T05:14:45;8.63;;;4.60;;
76995;SDS011;65929;49.062;10.338;2023-02-08T05:15:46;9.05;;;4.18;;
76995;SDS011;65929;49.062;10.338;2023-02-08T05:16:47;10.98;;;4.38;;
76995;SDS011;65929;49.062;10.338;2023-02-08T05:17:48;7.97;;;5.32;;
76995;SDS011;65929;49.062;10.338;2023-02-08T05:18:49;12.60;;;5.65;;
76995;SDS011;65929;49.062;10.338;2023-02-08T05:19:59;14.32;;;4.90;;
76995;SDS011;65929;49.062;10.338;2023-02-08T05:21:34;8.02;;;3.97;;
76995;SDS011;65929;49.062;10.338;2023-02-08T05:22:44;7.90;;;4.80;;
76995;SDS011;65929;49.062;10.338;2023-02-08T05:23:51;10.38;;;4.85;;
76995;SDS011;65929;49.062;10.338;2023-02-08T05:25:03;8.20;;;4.15;;
76995;SDS011;65929;49.062;10.338;2023-02-08T05:26:10;7.90;;;5.15;;
76995;SDS011;65929;49.062;10.338;2023-02-08T05:27:11;15.82;;;4.72;;
76995;SDS011;65929;49.062;10.338;2023-02-08T05:28:12;16.65;;;6.10;;
76995;SDS011;65929;49.062;10.338;2023-02-08T05:29:16;12.00;;;5.05;;
76995;SDS011;65929;49.062;10.338;2023-02-08T05:30:23;7.75;;;5.47;;
76995;SDS011;65929;49.062;10.338;2023-02-08T05:31:24;11.20;;;4.93;;
76995;SDS011;65929;49.062;10.338;2023-02-08T05:32:25;5.88;;;4.30;;
76995;SDS011;65929;49.062;10.338;2023-02-08T05:33:26;7.28;;;5.28;;
76995;SDS011;65929;49.062;10.338;2023-02-08T05:34:30;13.00;;;5.35;;
76995;SDS011;65929;49.062;10.338;2023-02-08T05:35:31;11.55;;;5.32;;
76995;SDS011;65929;49.062;10.338;2023-02-08T05:36:32;10.77;;;5.60;;
76995;SDS011;65929;49.062;10.338;2023-02-08T05:37:34;13.60;;;4.93;;
76995;SDS011;65929;49.062;10.338;2023-02-08T05:38:36;9.43;;;5.40;;
76995;SDS011;65929;49.062;10.338;2023-02-08T05:39:36;15.45;;;6.50;;
76995;SDS011;65929;49.062;10.338;2023-02-08T05:40:37;13.10;;;6.35;;
76995;SDS011;65929;49.062;10.338;2023-02-08T05:41:38;8.82;;;5.93;;
76995;SDS011;65929;49.062;10.338;2023-02-08T05:42:39;14.75;;;4.90;;
76995;SDS011;65929;49.062;10.338;2023-02-08T05:43:41;11.20;;;5.20;;
76995;SDS011;65929;49.062;10.338;2023-02-08T05:44:42;11.52;;;4.90;;
76995;SDS011;65929;49.062;10.338;2023-02-08T05:45:43;9.48;;;4.40;;
76995;SDS011;65929;49.062;10.338;2023-02-08T05:46:44;9.35;;;4.53;;
76995;SDS011;65929;49.062;10.338;2023-02-08T05:47:45;9.82;;;5.53;;
76995;SDS011;65929;49.062;10.338;2023-02-08T05:48:46;12.48;;;5.18;;
76995;SDS011;65929;49.062;10.338;2023-02-08T05:49:47;15.43;;;4.97;;
76995;SDS011;65929;49.062;10.338;2023-02-08T05:50:48;11.25;;;3.70;;
76995;SDS011;65929;49.062;10.338;2023-02-08T05:51:49;10.77;;;5.05;;
76995;SDS011;65929;49.062;10.338;2023-02-08T05:52:51;12.88;;;5.05;;
76995;SDS011;65929;49.062;10.338;2023-02-08T05:53:52;9.00;;;4.40;;
76995;SDS011;65929;49.062;10.338;2023-02-08T05:54:53;7.88;;;4.28;;
76995;SDS011;65929;49.062;10.338;2023-02-08T05:55:55;10.10;;;5.60;;
76995;SDS011;65929;49.062;10.338;2023-02-08T05:56:57;12.20;;;5.88;;
76995;SDS011;65929;49.062;10.338;2023-02-08T05:57:58;11.57;;;4.88;;
76995;SDS011;65929;49.062;10.338;2023-02-08T05:58:59;10.07;;;4.13;;
76995;SDS011;65929;49.062;10.338;2023-02-08T06:00:00;11.20;;;5.25;;
76995;SDS011;65929;49.062;10.338;2023-02-08T06:01:06;9.80;;;4.50;;
76995;SDS011;65929;49.062;10.338;2023-02-08T06:02:08;6.97;;;4.47;;
76995;SDS011;65929;49.062;10.338;2023-02-08T06:03:09;10.50;;;4.85;;
76995;SDS011;65929;49.062;10.338;2023-02-08T06:04:10;12.60;;;5.32;;
76995;SDS011;65929;49.062;10.338;2023-02-08T06:05:11;13.98;;;5.30;;
76995;SDS011;65929;49.062;10.338;2023-02-08T06:06:12;15.00;;;5.78;;
76995;SDS011;65929;49.062;10.338;2023-02-08T06:07:13;9.70;;;5.03;;
76995;SDS011;65929;49.062;10.338;2023-02-08T06:08:16;8.85;;;4.63;;
76995;SDS011;65929;49.062;10.338;2023-02-08T06:09:17;13.07;;;5.50;;
76995;SDS011;65929;49.062;10.338;2023-02-08T06:10:18;9.02;;;4.30;;
76995;SDS011;65929;49.062;10.338;2023-02-08T06:11:19;9.73;;;4.93;;
76995;SDS011;65929;49.062;10.338;2023-02-08T06:12:20;10.60;;;5.22;;
76995;SDS011;65929;49.062;10.338;2023-02-08T06:13:21;10.05;;;4.72;;
76995;SDS011;65929;49.062;10.338;2023-02-08T06:14:21;10.93;;;5.30;;
76995;SDS011;65929;49.062;10.338;2023-02-08T06:15:22;11.00;;;4.75;;
76995;SDS011;65929;49.062;10.338;2023-02-08T06:16:23;10.43;;;4.97;;
76995;SDS011;65929;49.062;10.338;2023-02-08T06:17:24;15.32;;;5.65;;
76995;SDS011;65929;49.062;10.338;2023-02-08T06:18:25;10.90;;;4.93;;
76995;SDS011;65929;49.062;10.338;2023-02-08T06:20:00;8.73;;;4.10;;
76995;SDS011;65929;49.062;10.338;2023-02-08T06:21:34;5.95;;;3.55;;
76995;SDS011;65929;49.062;10.338;2023-02-08T06:24:22;7.55;;;3.90;;
76995;SDS011;65929;49.062;10.338;2023-02-08T06:25:24;9.45;;;4.75;;
76995;SDS011;65929;49.062;10.338;2023-02-08T06:26:37;7.20;;;4.28;;
76995;SDS011;65929;49.062;10.338;2023-02-08T06:27:45;6.47;;;4.85;;